sensor_id;sensor_type;location;lat;lon;timestamp;pressure;altitude;pressure_sealevel;temperature;humidity
5053;BME280;2545;50.892;5.740;2023-02-12T00:01:33;56331.72;;;-142.21;100.00
5053;BME280;2545;50.892;5.740;2023-02-12T00:03:59;56333.69;;;-142.21;100.00
5053;BME280;2545;50.892;5.740;2023-02-12T00:06:25;56351.31;;;-142.21;100.00
5053;BME280;2545;50.892;5.740;2023-02-12T00:08:52;56355.25;;;-142.21;100.00
5053;BME280;2545;50.892;5.740;2023-02-12T00:11:20;56361.13;;;-142.21;100.00
5053;BME280;2545;50.892;5.740;2023-02-12T00:13:46;56327.78;;;-142.21;100.00
5053;BME280;2545;50.892;5.740;2023-02-12T00:16:14;56331.72;;;-142.21;100.00
5053;BME280;2545;50.892;5.740;2023-02-12T00:18:40;56345.44;;;-142.21;100.00
5053;BME280;2545;50.892;5.740;2023-02-12T00:21:06;56329.75;;;-142.21;100.00
5053;BME280;2545;50.892;5.740;2023-02-12T00:23:35;56284.66;;;-142.21;100.00
5053;BME280;2545;50.892;5.740;2023-02-12T00:26:12;56308.19;;;-142.21;100.00
5053;BME280;2545;50.892;5.740;2023-02-12T00:28:37;56345.44;;;-142.21;100.00
5053;BME280;2545;50.892;5.740;2023-02-12T00:31:10;56331.72;;;-142.21;100.00
5053;BME280;2545;50.892;5.740;2023-02-12T00:33:36;56316.03;;;-142.21;100.00
5053;BME280;2545;50.892;5.740;2023-02-12T00:36:03;56314.06;;;-142.21;100.00
5053;BME280;2545;50.892;5.740;2023-02-12T00:38:28;56347.41;;;-142.21;100.00
5053;BME280;2545;50.892;5.740;2023-02-12T00:40:54;56339.56;;;-142.21;100.00
5053;BME280;2545;50.892;5.740;2023-02-12T00:43:19;56345.44;;;-142.21;100.00
5053;BME280;2545;50.892;5.740;2023-02-12T00:45:45;56327.78;;;-142.21;100.00
5053;BME280;2545;50.892;5.740;2023-02-12T00:48:11;56327.78;;;-142.21;100.00
5053;BME280;2545;50.892;5.740;2023-02-12T00:50:37;56310.13;;;-142.21;100.00
5053;BME280;2545;50.892;5.740;2023-02-12T00:53:02;56337.59;;;-142.21;100.00
5053;BME280;2545;50.892;5.740;2023-02-12T00:55:28;56351.31;;;-142.21;100.00
5053;BME280;2545;50.892;5.740;2023-02-12T00:57:53;56347.41;;;-142.21;100.00
5053;BME280;2545;50.892;5.740;2023-02-12T01:00:18;56335.63;;;-142.21;100.00
5053;BME280;2545;50.892;5.740;2023-02-12T01:02:44;56363.09;;;-142.21;100.00
5053;BME280;2545;50.892;5.740;2023-02-12T01:05:09;56339.56;;;-142.21;100.00
5053;BME280;2545;50.892;5.740;2023-02-12T01:07:35;56329.75;;;-142.21;100.00
5053;BME280;2545;50.892;5.740;2023-02-12T01:10:03;56339.56;;;-142.21;100.00
5053;BME280;2545;50.892;5.740;2023-02-12T01:12:28;56365.06;;;-142.21;100.00
5053;BME280;2545;50.892;5.740;2023-02-12T01:14:53;56302.28;;;-142.21;100.00
5053;BME280;2545;50.892;5.740;2023-02-12T01:17:19;56351.31;;;-142.21;100.00
5053;BME280;2545;50.892;5.740;2023-02-12T01:19:44;56341.53;;;-142.21;100.00
5053;BME280;2545;50.892;5.740;2023-02-12T01:22:09;56357.22;;;-142.21;100.00
5053;BME280;2545;50.892;5.740;2023-02-12T01:24:35;56335.63;;;-142.21;100.00
5053;BME280;2545;50.892;5.740;2023-02-12T01:27:00;56323.88;;;-142.21;100.00
5053;BME280;2545;50.892;5.740;2023-02-12T01:29:25;56337.59;;;-142.21;100.00
5053;BME280;2545;50.892;5.740;2023-02-12T01:31:51;56296.41;;;-142.21;100.00
5053;BME280;2545;50.892;5.740;2023-02-12T01:34:16;56351.31;;;-142.21;100.00
5053;BME280;2545;50.892;5.740;2023-02-12T01:36:41;56335.63;;;-142.21;100.00
5053;BME280;2545;50.892;5.740;2023-02-12T01:39:07;56331.72;;;-142.21;100.00
5053;BME280;2545;50.892;5.740;2023-02-12T01:41:36;56319.94;;;-142.21;100.00
5053;BME280;2545;50.892;5.740;2023-02-12T01:46:44;56349.38;;;-142.21;100.00
5053;BME280;2545;50.892;5.740;2023-02-12T01:49:26;56365.06;;;-142.21;100.00
5053;BME280;2545;50.892;5.740;2023-02-12T01:51:59;56331.72;;;-142.21;100.00
5053;BME280;2545;50.892;5.740;2023-02-12T01:54:27;56345.44;;;-142.21;100.00
5053;BME280;2545;50.892;5.740;2023-02-12T01:56:53;56286.63;;;-142.21;100.00
5053;BME280;2545;50.892;5.740;2023-02-12T01:59:19;56325.84;;;-142.21;100.00
5053;BME280;2545;50.892;5.740;2023-02-12T02:01:46;56312.09;;;-142.21;100.00
5053;BME280;2545;50.892;5.740;2023-02-12T02:04:15;56308.19;;;-142.21;100.00
5053;BME280;2545;50.892;5.740;2023-02-12T02:06:48;56321.91;;;-142.21;100.00
5053;BME280;2545;50.892;5.740;2023-02-12T02:09:16;56357.22;;;-142.21;100.00
5053;BME280;2545;50.892;5.740;2023-02-12T02:11:42;56317.97;;;-142.21;100.00
5053;BME280;2545;50.892;5.740;2023-02-12T02:14:26;56351.31;;;-142.21;100.00
5053;BME280;2545;50.892;5.740;2023-02-12T02:17:09;56343.47;;;-142.21;100.00
5053;BME280;2545;50.892;5.740;2023-02-12T02:28:42;56337.59;;;-142.21;100.00
5053;BME280;2545;50.892;5.740;2023-02-12T02:34:18;56321.91;;;-142.21;100.00
5053;BME280;2545;50.892;5.740;2023-02-12T02:36:59;56363.09;;;-142.21;100.00
5053;BME280;2545;50.892;5.740;2023-02-12T02:39:37;56310.13;;;-142.21;100.00
5053;BME280;2545;50.892;5.740;2023-02-12T02:42:16;56325.84;;;-142.21;100.00
5053;BME280;2545;50.892;5.740;2023-02-12T02:44:58;56357.22;;;-142.21;100.00
5053;BME280;2545;50.892;5.740;2023-02-12T02:47:37;56314.06;;;-142.21;100.00
5053;BME280;2545;50.892;5.740;2023-02-12T02:50:12;56372.91;;;-142.21;100.00
5053;BME280;2545;50.892;5.740;2023-02-12T02:52:43;56343.47;;;-142.21;100.00
5053;BME280;2545;50.892;5.740;2023-02-12T02:55:13;56339.56;;;-142.21;100.00
5053;BME280;2545;50.892;5.740;2023-02-12T02:57:46;56327.78;;;-142.21;100.00
5053;BME280;2545;50.892;5.740;2023-02-12T03:00:28;56331.72;;;-142.21;100.00
5053;BME280;2545;50.892;5.740;2023-02-12T03:06:11;56339.56;;;-142.21;100.00
5053;BME280;2545;50.892;5.740;2023-02-12T03:08:41;56363.09;;;-142.21;100.00
5053;BME280;2545;50.892;5.740;2023-02-12T03:11:17;56339.56;;;-142.21;100.00
5053;BME280;2545;50.892;5.740;2023-02-12T03:13:48;56347.41;;;-142.21;100.00
5053;BME280;2545;50.892;5.740;2023-02-12T03:16:22;56316.03;;;-142.21;100.00
5053;BME280;2545;50.892;5.740;2023-02-12T03:19:11;56339.56;;;-142.21;100.00
5053;BME280;2545;50.892;5.740;2023-02-12T03:21:56;56339.56;;;-142.21;100.00
5053;BME280;2545;50.892;5.740;2023-02-12T03:24:44;56327.78;;;-142.21;100.00
5053;BME280;2545;50.892;5.740;2023-02-12T03:27:21;56331.72;;;-142.21;100.00
5053;BME280;2545;50.892;5.740;2023-02-12T03:29:51;56317.97;;;-142.21;100.00
5053;BME280;2545;50.892;5.740;2023-02-12T03:35:06;56319.94;;;-142.21;100.00
5053;BME280;2545;50.892;5.740;2023-02-12T03:37:40;56316.03;;;-142.21;100.00
5053;BME280;2545;50.892;5.740;2023-02-12T03:40:29;56351.31;;;-142.21;100.00
5053;BME280;2545;50.892;5.740;2023-02-12T03:45:57;56341.53;;;-142.21;100.00
5053;BME280;2545;50.892;5.740;2023-02-12T03:48:31;56333.69;;;-142.21;100.00
5053;BME280;2545;50.892;5.740;2023-02-12T03:53:27;56333.69;;;-142.21;100.00
5053;BME280;2545;50.892;5.740;2023-02-12T03:56:04;56339.56;;;-142.21;100.00
5053;BME280;2545;50.892;5.740;2023-02-12T03:58:33;56374.84;;;-142.21;100.00
5053;BME280;2545;50.892;5.740;2023-02-12T04:01:00;56345.44;;;-142.21;100.00
5053;BME280;2545;50.892;5.740;2023-02-12T04:03:26;56359.16;;;-142.21;100.00
5053;BME280;2545;50.892;5.740;2023-02-12T04:05:51;56331.72;;;-142.21;100.00
5053;BME280;2545;50.892;5.740;2023-02-12T04:08:16;56339.56;;;-142.21;100.00
5053;BME280;2545;50.892;5.740;2023-02-12T04:13:42;56374.84;;;-142.21;100.00
5053;BME280;2545;50.892;5.740;2023-02-12T04:18:43;56331.72;;;-142.21;100.00
5053;BME280;2545;50.892;5.740;2023-02-12T04:24:17;56300.34;;;-142.21;100.00
5053;BME280;2545;50.892;5.740;2023-02-12T04:27:11;56357.22;;;-142.21;100.00
5053;BME280;2545;50.892;5.740;2023-02-12T04:32:15;56314.06;;;-142.21;100.00
5053;BME280;2545;50.892;5.740;2023-02-12T04:35:02;56378.78;;;-142.21;100.00
5053;BME280;2545;50.892;5.740;2023-02-12T04:37:35;56339.56;;;-142.21;100.00
5053;BME280;2545;50.892;5.740;2023-02-12T04:40:05;56329.75;;;-142.21;100.00
5053;BME280;2545;50.892;5.740;2023-02-12T04:42:43;56370.94;;;-142.21;100.00
5053;BME280;2545;50.892;5.740;2023-02-12T04:45:10;56345.44;;;-142.21;100.00
5053;BME280;2545;50.892;5.740;2023-02-12T04:47:37;56363.09;;;-142.21;100.00
5053;BME280;2545;50.892;5.740;2023-02-12T04:50:02;56347.41;;;-142.21;100.00
5053;BME280;2545;50.892;5.740;2023-02-12T04:52:28;56357.22;;;-142.21;100.00
5053;BME280;2545;50.892;5.740;2023-02-12T04:54:53;56312.09;;;-142.21;100.00
5053;BME280;2545;50.892;5.740;2023-02-12T04:57:18;56406.22;;;-142.21;100.00
5053;BME280;2545;50.892;5.740;2023-02-12T04:59:43;56335.63;;;-142.21;100.00
5053;BME280;2545;50.892;5.740;2023-02-12T05:02:09;56351.31;;;-142.21;100.00
5053;BME280;2545;50.892;5.740;2023-02-12T05:04:34;56347.41;;;-142.21;100.00
5053;BME280;2545;50.892;5.740;2023-02-12T05:06:59;56347.41;;;-142.21;100.00
5053;BME280;2545;50.892;5.740;2023-02-12T05:09:25;56343.47;;;-142.21;100.00
5053;BME280;2545;50.892;5.740;2023-02-12T05:11:50;56361.13;;;-142.21;100.00
5053;BME280;2545;50.892;5.740;2023-02-12T05:14:15;56378.78;;;-142.21;100.00
5053;BME280;2545;50.892;5.740;2023-02-12T05:16:40;56331.72;;;-142.21;100.00
5053;BME280;2545;50.892;5.740;2023-02-12T05:19:06;56317.97;;;-142.21;100.00
5053;BME280;2545;50.892;5.740;2023-02-12T05:21:33;56323.88;;;-142.21;100.00
5053;BME280;2545;50.892;5.740;2023-02-12T05:24:00;56361.13;;;-142.21;100.00
5053;BME280;2545;50.892;5.740;2023-02-12T05:26:26;56339.56;;;-142.21;100.00
5053;BME280;2545;50.892;5.740;2023-02-12T05:28:51;56296.41;;;-142.21;100.00
5053;BME280;2545;50.892;5.740;2023-02-12T05:31:18;56357.22;;;-142.21;100.00
5053;BME280;2545;50.892;5.740;2023-02-12T05:33:45;56361.13;;;-142.21;100.00
5053;BME280;2545;50.892;5.740;2023-02-12T05:36:15;56347.41;;;-142.21;100.00
5053;BME280;2545;50.892;5.740;2023-02-12T05:38:41;56368.97;;;-142.21;100.00
5053;BME280;2545;50.892;5.740;2023-02-12T05:41:10;56361.13;;;-142.21;100.00
5053;BME280;2545;50.892;5.740;2023-02-12T05:43:35;56374.84;;;-142.21;100.00
5053;BME280;2545;50.892;5.740;2023-02-12T05:46:02;56314.06;;;-142.21;100.00
5053;BME280;2545;50.892;5.740;2023-02-12T05:48:28;56331.72;;;-142.21;100.00
5053;BME280;2545;50.892;5.740;2023-02-12T05:50:54;56341.53;;;-142.21;100.00
5053;BME280;2545;50.892;5.740;2023-02-12T05:53:25;56363.09;;;-142.21;100.00
5053;BME280;2545;50.892;5.740;2023-02-12T05:55:50;56347.41;;;-142.21;100.00
5053;BME280;2545;50.892;5.740;2023-02-12T05:58:15;56367.00;;;-142.21;100.00
5053;BME280;2545;50.892;5.740;2023-02-12T06:00:40;56345.44;;;-142.21;100.00
5053;BME280;2545;50.892;5.740;2023-02-12T06:03:06;56339.56;;;-142.21;100.00
5053;BME280;2545;50.892;5.740;2023-02-12T06:05:31;56341.53;;;-142.21;100.00
5053;BME280;2545;50.892;5.740;2023-02-12T06:07:56;56343.47;;;-142.21;100.00
5053;BME280;2545;50.892;5.740;2023-02-12T06:10:22;56359.16;;;-142.21;100.00
5053;BME280;2545;50.892;5.740;2023-02-12T06:12:52;56341.53;;;-142.21;100.00
5053;BME280;2545;50.892;5.740;2023-02-12T06:15:18;56331.72;;;-142.21;100.00
5053;BME280;2545;50.892;5.740;2023-02-12T06:17:43;56353.28;;;-142.21;100.00
5053;BME280;2545;50.892;5.740;2023-02-12T06:20:08;56374.84;;;-142.21;100.00
5053;BME280;2545;50.892;5.740;2023-02-12T06:22:34;56367.00;;;-142.21;100.00
5053;BME280;2545;50.892;5.740;2023-02-12T06:24:59;56374.84;;;-142.21;100.00
5053;BME280;2545;50.892;5.740;2023-02-12T06:27:24;56351.31;;;-142.21;100.00
5053;BME280;2545;50.892;5.740;2023-02-12T06:29:49;56353.28;;;-142.21;100.00
5053;BME280;2545;50.892;5.740;2023-02-12T06:32:15;56376.81;;;-142.21;100.00
5053;BME280;2545;50.892;5.740;2023-02-12T06:34:40;56335.63;;;-142.21;100.00
5053;BME280;2545;50.892;5.740;2023-02-12T06:37:05;56367.00;;;-142.21;100.00
5053;BME280;2545;50.892;5.740;2023-02-12T06:39:32;56351.31;;;-142.21;100.00
5053;BME280;2545;50.892;5.740;2023-02-12T06:41:57;56368.97;;;-142.21;100.00
5053;BME280;2545;50.892;5.740;2023-02-12T06:44:22;56331.72;;;-142.21;100.00
5053;BME280;2545;50.892;5.740;2023-02-12T06:46:48;56349.38;;;-142.21;100.00
5053;BME280;2545;50.892;5.740;2023-02-12T06:49:13;56363.09;;;-142.21;100.00
5053;BME280;2545;50.892;5.740;2023-02-12T06:51:39;56359.16;;;-142.21;100.00
5053;BME280;2545;50.892;5.740;2023-02-12T06:54:11;56349.38;;;-142.21;100.00
5053;BME280;2545;50.892;5.740;2023-02-12T06:56:37;56335.63;;;-142.21;100.00
5053;BME280;2545;50.892;5.740;2023-02-12T06:59:02;56347.41;;;-142.21;100.00
5053;BME280;2545;50.892;5.740;2023-02-12T07:01:28;56370.94;;;-142.21;100.00
5053;BME280;2545;50.892;5.740;2023-02-12T07:03:56;56359.16;;;-142.21;100.00
5053;BME280;2545;50.892;5.740;2023-02-12T07:06:22;56367.00;;;-142.21;100.00
5053;BME280;2545;50.892;5.740;2023-02-12T07:08:48;56363.09;;;-142.21;100.00
5053;BME280;2545;50.892;5.740;2023-02-12T07:11:14;56343.47;;;-142.21;100.00
5053;BME280;2545;50.892;5.740;2023-02-12T07:13:41;56361.13;;;-142.21;100.00
5053;BME280;2545;50.892;5.740;2023-02-12T07:16:10;56365.06;;;-142.21;100.00
5053;BME280;2545;50.892;5.740;2023-02-12T07:18:36;56343.47;;;-142.21;100.00
5053;BME280;2545;50.892;5.740;2023-02-12T07:21:03;56333.69;;;-142.21;100.00
5053;BME280;2545;50.892;5.740;2023-02-12T07:23:29;56319.94;;;-142.21;100.00
5053;BME280;2545;50.892;5.740;2023-02-12T07:25:56;56331.72;;;-142.21;100.00
5053;BME280;2545;50.892;5.740;2023-02-12T07:28:28;56359.16;;;-142.21;100.00
5053;BME280;2545;50.892;5.740;2023-02-12T07:30:58;56386.63;;;-142.21;100.00
5053;BME280;2545;50.892;5.740;2023-02-12T07:33:23;56357.22;;;-142.21;100.00
5053;BME280;2545;50.892;5.740;2023-02-12T07:35:48;56390.53;;;-142.21;100.00
5053;BME280;2545;50.892;5.740;2023-02-12T07:38:14;56323.88;;;-142.21;100.00
5053;BME280;2545;50.892;5.740;2023-02-12T07:40:39;56351.31;;;-142.21;100.00
5053;BME280;2545;50.892;5.740;2023-02-12T07:43:04;56353.28;;;-142.21;100.00
5053;BME280;2545;50.892;5.740;2023-02-12T07:45:30;56325.84;;;-142.21;100.00
5053;BME280;2545;50.892;5.740;2023-02-12T07:47:55;56357.22;;;-142.21;100.00
5053;BME280;2545;50.892;5.740;2023-02-12T07:50:20;56345.44;;;-142.21;100.00
5053;BME280;2545;50.892;5.740;2023-02-12T07:52:48;56343.47;;;-142.21;100.00
5053;BME280;2545;50.892;5.740;2023-02-12T07:55:14;56335.63;;;-142.21;100.00
5053;BME280;2545;50.892;5.740;2023-02-12T07:57:39;56357.22;;;-142.21;100.00
5053;BME280;2545;50.892;5.740;2023-02-12T08:00:08;56347.41;;;-142.21;100.00
5053;BME280;2545;50.892;5.740;2023-02-12T08:02:33;56339.56;;;-142.21;100.00
5053;BME280;2545;50.892;5.740;2023-02-12T08:04:59;56380.75;;;-142.21;100.00
5053;BME280;2545;50.892;5.740;2023-02-12T08:07:24;56351.31;;;-142.21;100.00
5053;BME280;2545;50.892;5.740;2023-02-12T08:09:50;56384.66;;;-142.21;100.00
5053;BME280;2545;50.892;5.740;2023-02-12T08:12:16;56353.28;;;-142.21;100.00
5053;BME280;2545;50.892;5.740;2023-02-12T08:14:42;56343.47;;;-142.21;100.00
5053;BME280;2545;50.892;5.740;2023-02-12T08:17:08;56339.56;;;-142.21;100.00
5053;BME280;2545;50.892;5.740;2023-02-12T08:19:34;56331.72;;;-142.21;100.00
5053;BME280;2545;50.892;5.740;2023-02-12T08:21:59;56349.38;;;-142.21;100.00
5053;BME280;2545;50.892;5.740;2023-02-12T08:24:27;56357.22;;;-142.21;100.00
5053;BME280;2545;50.892;5.740;2023-02-12T08:26:53;56357.22;;;-142.21;100.00
5053;BME280;2545;50.892;5.740;2023-02-12T08:29:21;56333.69;;;-142.21;100.00
5053;BME280;2545;50.892;5.740;2023-02-12T08:31:49;56327.78;;;-142.21;100.00
5053;BME280;2545;50.892;5.740;2023-02-12T08:34:28;56316.03;;;-142.21;100.00
5053;BME280;2545;50.892;5.740;2023-02-12T08:36:55;56359.16;;;-142.21;100.00
5053;BME280;2545;50.892;5.740;2023-02-12T08:39:22;56378.78;;;-142.21;100.00
5053;BME280;2545;50.892;5.740;2023-02-12T08:41:48;56343.47;;;-142.21;100.00
5053;BME280;2545;50.892;5.740;2023-02-12T08:44:14;56341.53;;;-142.21;100.00
5053;BME280;2545;50.892;5.740;2023-02-12T08:46:46;56388.59;;;-142.21;100.00
5053;BME280;2545;50.892;5.740;2023-02-12T08:49:14;56351.31;;;-142.21;100.00
5053;BME280;2545;50.892;5.740;2023-02-12T08:51:42;56357.22;;;-142.21;100.00
5053;BME280;2545;50.892;5.740;2023-02-12T08:54:14;56380.75;;;-142.21;100.00
5053;BME280;2545;50.892;5.740;2023-02-12T08:56:40;56343.47;;;-142.21;100.00
5053;BME280;2545;50.892;5.740;2023-02-12T08:59:07;56357.22;;;-142.21;100.00
5053;BME280;2545;50.892;5.740;2023-02-12T09:01:34;56359.16;;;-142.21;100.00
5053;BME280;2545;50.892;5.740;2023-02-12T09:04:03;56365.06;;;-142.21;100.00
5053;BME280;2545;50.892;5.740;2023-02-12T09:06:32;56363.09;;;-142.21;100.00
5053;BME280;2545;50.892;5.740;2023-02-12T09:08:58;56359.16;;;-142.21;100.00
5053;BME280;2545;50.892;5.740;2023-02-12T09:11:26;56329.75;;;-142.21;100.00
5053;BME280;2545;50.892;5.740;2023-02-12T09:13:59;56337.59;;;-142.21;100.00
5053;BME280;2545;50.892;5.740;2023-02-12T09:16:29;56317.97;;;-142.21;100.00
5053;BME280;2545;50.892;5.740;2023-02-12T09:18:55;56335.63;;;-142.21;100.00
5053;BME280;2545;50.892;5.740;2023-02-12T09:21:21;56355.25;;;-142.21;100.00
5053;BME280;2545;50.892;5.740;2023-02-12T09:23:48;56329.75;;;-142.21;100.00
5053;BME280;2545;50.892;5.740;2023-02-12T09:26:16;56321.91;;;-142.21;100.00
5053;BME280;2545;50.892;5.740;2023-02-12T09:28:44;56341.53;;;-142.21;100.00
5053;BME280;2545;50.892;5.740;2023-02-12T09:31:13;56310.13;;;-142.21;100.00
5053;BME280;2545;50.892;5.740;2023-02-12T09:33:39;56384.66;;;-142.21;100.00
5053;BME280;2545;50.892;5.740;2023-02-12T09:36:11;56353.28;;;-142.21;100.00
5053;BME280;2545;50.892;5.740;2023-02-12T09:38:37;56321.91;;;-142.21;100.00
5053;BME280;2545;50.892;5.740;2023-02-12T09:44:05;56317.97;;;-142.21;100.00
5053;BME280;2545;50.892;5.740;2023-02-12T09:46:44;56365.06;;;-142.21;100.00
5053;BME280;2545;50.892;5.740;2023-02-12T09:49:38;56310.13;;;-142.21;100.00
5053;BME280;2545;50.892;5.740;2023-02-12T09:52:13;56351.31;;;-142.21;100.00
5053;BME280;2545;50.892;5.740;2023-02-12T09:54:42;56351.31;;;-142.21;100.00
5053;BME280;2545;50.892;5.740;2023-02-12T09:57:18;56361.13;;;-142.21;100.00
5053;BME280;2545;50.892;5.740;2023-02-12T09:59:50;56347.41;;;-142.21;100.00
5053;BME280;2545;50.892;5.740;2023-02-12T10:02:18;56321.91;;;-142.21;100.00
5053;BME280;2545;50.892;5.740;2023-02-12T10:04:45;56327.78;;;-142.21;100.00
5053;BME280;2545;50.892;5.740;2023-02-12T10:10:02;56347.41;;;-142.21;100.00
5053;BME280;2545;50.892;5.740;2023-02-12T10:15:34;56361.13;;;-142.21;100.00
5053;BME280;2545;50.892;5.740;2023-02-12T10:18:16;56370.94;;;-142.21;100.00
5053;BME280;2545;50.892;5.740;2023-02-12T10:20:51;56343.47;;;-142.21;100.00
5053;BME280;2545;50.892;5.740;2023-02-12T10:26:37;56372.91;;;-142.21;100.00
5053;BME280;2545;50.892;5.740;2023-02-12T10:31:43;56386.63;;;-142.21;100.00
5053;BME280;2545;50.892;5.740;2023-02-12T10:34:17;56386.63;;;-142.21;100.00
5053;BME280;2545;50.892;5.740;2023-02-12T10:36:45;56367.00;;;-142.21;100.00
5053;BME280;2545;50.892;5.740;2023-02-12T10:42:02;56349.38;;;-142.21;100.00
5053;BME280;2545;50.892;5.740;2023-02-12T10:44:30;56410.16;;;-142.21;100.00
5053;BME280;2545;50.892;5.740;2023-02-12T10:46:55;56353.28;;;-142.21;100.00
5053;BME280;2545;50.892;5.740;2023-02-12T10:49:21;56376.81;;;-142.21;100.00
5053;BME280;2545;50.892;5.740;2023-02-12T10:54:40;56327.78;;;-142.21;100.00
5053;BME280;2545;50.892;5.740;2023-02-12T10:57:28;56325.84;;;-142.21;100.00
5053;BME280;2545;50.892;5.740;2023-02-12T10:59:56;56347.41;;;-142.21;100.00
5053;BME280;2545;50.892;5.740;2023-02-12T11:02:37;56374.84;;;-142.21;100.00
5053;BME280;2545;50.892;5.740;2023-02-12T11:05:24;56329.75;;;-142.21;100.00
5053;BME280;2545;50.892;5.740;2023-02-12T11:07:50;56341.53;;;-142.21;100.00
5053;BME280;2545;50.892;5.740;2023-02-12T11:10:28;56312.09;;;-142.21;98.95
5053;BME280;2545;50.892;5.740;2023-02-12T11:12:54;56349.38;;;-142.21;97.51
5053;BME280;2545;50.892;5.740;2023-02-12T11:15:22;56335.63;;;-142.21;97.35
5053;BME280;2545;50.892;5.740;2023-02-12T11:20:23;56339.56;;;-142.21;94.97
5053;BME280;2545;50.892;5.740;2023-02-12T11:25:16;56319.94;;;-142.21;92.64
5053;BME280;2545;50.892;5.740;2023-02-12T11:27:42;56323.88;;;-142.21;92.12
5053;BME280;2545;50.892;5.740;2023-02-12T11:30:17;56363.09;;;-142.21;92.54
5053;BME280;2545;50.892;5.740;2023-02-12T11:32:42;56317.97;;;-142.21;92.86
5053;BME280;2545;50.892;5.740;2023-02-12T11:35:16;56327.78;;;-142.21;92.30
5053;BME280;2545;50.892;5.740;2023-02-12T11:37:48;56314.06;;;-142.21;92.02
5053;BME280;2545;50.892;5.740;2023-02-12T11:42:47;56337.59;;;-142.21;90.13
5053;BME280;2545;50.892;5.740;2023-02-12T11:45:19;56327.78;;;-142.21;90.03
5053;BME280;2545;50.892;5.740;2023-02-12T11:47:46;56343.47;;;-142.21;87.20
5053;BME280;2545;50.892;5.740;2023-02-12T11:50:30;56290.53;;;-142.21;87.31
5053;BME280;2545;50.892;5.740;2023-02-12T11:53:02;56331.72;;;-142.21;87.72
5053;BME280;2545;50.892;5.740;2023-02-12T11:55:33;56355.25;;;-142.21;87.18
5053;BME280;2545;50.892;5.740;2023-02-12T11:58:14;56368.97;;;-142.21;84.68
5053;BME280;2545;50.892;5.740;2023-02-12T12:03:14;56349.38;;;-142.21;82.70
5053;BME280;2545;50.892;5.740;2023-02-12T12:05:49;56319.94;;;-142.21;83.09
5053;BME280;2545;50.892;5.740;2023-02-12T12:08:22;56337.59;;;-142.21;81.90
5053;BME280;2545;50.892;5.740;2023-02-12T12:10:56;56306.22;;;-142.21;81.49
5053;BME280;2545;50.892;5.740;2023-02-12T12:13:32;56355.25;;;-142.21;81.17
5053;BME280;2545;50.892;5.740;2023-02-12T12:16:08;56370.94;;;-142.21;80.22
5053;BME280;2545;50.892;5.740;2023-02-12T12:19:09;56327.78;;;-142.21;80.89
5053;BME280;2545;50.892;5.740;2023-02-12T12:30:16;56347.41;;;-142.21;82.02
5053;BME280;2545;50.892;5.740;2023-02-12T12:32:43;56312.09;;;-142.21;81.54
5053;BME280;2545;50.892;5.740;2023-02-12T12:35:21;56335.63;;;-142.21;81.61
5053;BME280;2545;50.892;5.740;2023-02-12T12:38:01;56314.06;;;-142.21;82.13
5053;BME280;2545;50.892;5.740;2023-02-12T12:40:41;56337.59;;;-142.21;81.36
5053;BME280;2545;50.892;5.740;2023-02-12T12:43:17;56314.06;;;-142.21;80.57
5053;BME280;2545;50.892;5.740;2023-02-12T12:46:01;56331.72;;;-142.21;81.72
5053;BME280;2545;50.892;5.740;2023-02-12T12:48:50;56300.34;;;-142.21;80.78
5053;BME280;2545;50.892;5.740;2023-02-12T13:02:17;56319.94;;;-142.21;80.30
5053;BME280;2545;50.892;5.740;2023-02-12T13:08:02;56374.84;;;-142.21;81.17
5053;BME280;2545;50.892;5.740;2023-02-12T13:10:43;56296.41;;;-142.21;80.43
5053;BME280;2545;50.892;5.740;2023-02-12T13:13:35;56316.03;;;-142.21;79.68
5053;BME280;2545;50.892;5.740;2023-02-12T13:16:20;56321.91;;;-142.21;78.70
5053;BME280;2545;50.892;5.740;2023-02-12T13:19:14;56327.78;;;-142.21;79.15
5053;BME280;2545;50.892;5.740;2023-02-12T13:21:52;56302.28;;;-142.21;79.31
5053;BME280;2545;50.892;5.740;2023-02-12T13:24:42;56278.78;;;-142.21;79.28
5053;BME280;2545;50.892;5.740;2023-02-12T13:27:36;56294.47;;;-142.21;79.50
5053;BME280;2545;50.892;5.740;2023-02-12T13:30:06;56304.25;;;-142.21;79.57
5053;BME280;2545;50.892;5.740;2023-02-12T13:32:44;56329.75;;;-142.21;79.93
5053;BME280;2545;50.892;5.740;2023-02-12T13:35:20;56335.63;;;-142.21;80.00
5053;BME280;2545;50.892;5.740;2023-02-12T13:37:50;56308.19;;;-142.21;80.05
5053;BME280;2545;50.892;5.740;2023-02-12T13:40:22;56306.22;;;-142.21;80.01
5053;BME280;2545;50.892;5.740;2023-02-12T13:56:50;56294.47;;;-142.21;80.38
5053;BME280;2545;50.892;5.740;2023-02-12T13:59:47;56327.78;;;-142.21;80.42
5053;BME280;2545;50.892;5.740;2023-02-12T14:04:57;56327.78;;;-142.21;81.64
5053;BME280;2545;50.892;5.740;2023-02-12T14:07:39;56321.91;;;-142.21;81.61
5053;BME280;2545;50.892;5.740;2023-02-12T14:10:06;56257.19;;;-142.21;80.89
5053;BME280;2545;50.892;5.740;2023-02-12T14:12:34;56302.28;;;-142.21;81.39
5053;BME280;2545;50.892;5.740;2023-02-12T14:15:25;56312.09;;;-142.21;80.81
5053;BME280;2545;50.892;5.740;2023-02-12T14:17:55;56327.78;;;-142.21;79.86
5053;BME280;2545;50.892;5.740;2023-02-12T14:20:32;56331.72;;;-142.21;80.11
5053;BME280;2545;50.892;5.740;2023-02-12T14:26:02;56333.69;;;-142.21;80.41
5053;BME280;2545;50.892;5.740;2023-02-12T14:28:55;56314.06;;;-142.21;80.55
5053;BME280;2545;50.892;5.740;2023-02-12T14:31:35;56282.69;;;-142.21;81.60
5053;BME280;2545;50.892;5.740;2023-02-12T14:41:36;56345.44;;;-142.21;82.52
5053;BME280;2545;50.892;5.740;2023-02-12T14:49:24;56329.75;;;-142.21;82.10
5053;BME280;2545;50.892;5.740;2023-02-12T14:52:01;56337.59;;;-142.21;83.59
5053;BME280;2545;50.892;5.740;2023-02-12T14:54:49;56329.75;;;-142.21;84.65
5053;BME280;2545;50.892;5.740;2023-02-12T14:57:35;56306.22;;;-142.21;85.33
5053;BME280;2545;50.892;5.740;2023-02-12T15:00:38;56317.97;;;-142.21;85.84
5053;BME280;2545;50.892;5.740;2023-02-12T15:05:42;56335.63;;;-142.21;86.47
5053;BME280;2545;50.892;5.740;2023-02-12T15:08:43;56323.88;;;-142.21;87.18
5053;BME280;2545;50.892;5.740;2023-02-12T15:14:11;56365.06;;;-142.21;88.75
5053;BME280;2545;50.892;5.740;2023-02-12T15:17:17;56331.72;;;-142.21;87.88
5053;BME280;2545;50.892;5.740;2023-02-12T15:19:56;56300.34;;;-142.21;88.58